createdAt,value
2022-08-07T00:02:37.291Z,66.30
2022-08-07T00:04:09.254Z,66.20
2022-08-07T00:06:41.034Z,66.00
2022-08-07T00:09:21.134Z,66.40
2022-08-07T00:11:55.522Z,66.50
2022-08-07T00:14:25.407Z,66.10
2022-08-07T00:16:52.707Z,66.30
2022-08-07T00:19:21.695Z,66.40
2022-08-07T00:21:56.288Z,65.90
2022-08-07T00:24:31.542Z,66.00
2022-08-07T00:27:07.270Z,66.10
2022-08-07T00:29:36.914Z,65.90
2022-08-07T00:32:05.749Z,65.50
2022-08-07T00:34:35.581Z,66.20
2022-08-07T00:37:04.848Z,66.00
2022-08-07T00:39:33.610Z,66.20
2022-08-07T00:42:02.385Z,66.50
2022-08-07T00:44:33.177Z,66.30
2022-08-07T00:47:06.357Z,66.40
2022-08-07T00:50:21.217Z,66.90
2022-08-07T00:52:29.415Z,66.70
2022-08-07T00:55:04.635Z,66.80
2022-08-07T00:57:37.568Z,67.50
2022-08-07T01:00:12.068Z,67.10
2022-08-07T01:02:40.245Z,67.30
2022-08-07T01:05:19.250Z,67.20
2022-08-07T01:07:47.260Z,67.20
2022-08-07T01:10:17.075Z,67.00
2022-08-07T01:12:53.826Z,67.10
2022-08-07T01:16:01.016Z,67.60
2022-08-07T01:18:16.598Z,67.30
2022-08-07T01:20:59.346Z,67.20
2022-08-07T01:23:37.885Z,67.40
2022-08-07T01:26:12.046Z,67.60
2022-08-07T01:28:46.180Z,67.30
2022-08-07T01:31:21.366Z,67.20
2022-08-07T01:33:57.279Z,68.00
2022-08-07T01:36:33.273Z,67.80
2022-08-07T01:39:09.796Z,67.70
2022-08-07T01:42:06.110Z,67.30
2022-08-07T01:44:31.959Z,67.50
2022-08-07T01:47:01.130Z,67.60
2022-08-07T01:49:43.383Z,67.80
2022-08-07T01:52:12.279Z,67.80
2022-08-07T01:54:44.579Z,67.50
2022-08-07T01:57:24.264Z,67.70
2022-08-07T02:00:12.799Z,67.70
2022-08-07T02:03:19.159Z,67.80
2022-08-07T02:05:53.680Z,68.10
2022-08-07T02:08:30.549Z,68.10
2022-08-07T02:10:59.730Z,68.10
2022-08-07T02:13:56.436Z,68.20
2022-08-07T02:16:28.711Z,68.30
2022-08-07T02:20:04.181Z,68.40
2022-08-07T02:21:58.845Z,68.50
2022-08-07T02:24:29.286Z,68.70
2022-08-07T02:27:00.142Z,69.20
2022-08-07T02:29:30.575Z,69.30
2022-08-07T02:32:00.901Z,69.30
2022-08-07T02:34:29.556Z,69.30
2022-08-07T02:37:01.994Z,69.50
2022-08-07T02:39:43.783Z,69.60
2022-08-07T02:42:32.130Z,69.50
2022-08-07T02:45:57.344Z,69.70
2022-08-07T02:47:50.092Z,69.50
2022-08-07T02:50:19.342Z,69.80
2022-08-07T02:52:54.990Z,70.00
2022-08-07T02:56:02.175Z,70.00
2022-08-07T02:58:27.122Z,69.90
2022-08-07T03:00:58.169Z,70.40
2022-08-07T03:03:29.655Z,70.20
2022-08-07T03:06:25.592Z,70.30
2022-08-07T03:09:00.599Z,70.30
2022-08-07T03:11:28.406Z,70.90
2022-08-07T03:13:57.468Z,70.80
2022-08-07T03:16:30.742Z,71.10
2022-08-07T03:19:00.064Z,71.00
2022-08-07T03:21:32.997Z,71.00
2022-08-07T03:24:20.341Z,71.70
2022-08-07T03:26:58.972Z,71.80
2022-08-07T03:29:44.665Z,71.70
2022-08-07T03:32:22.111Z,71.40
2022-08-07T03:35:17.080Z,71.90
2022-08-07T03:37:46.154Z,72.00
2022-08-07T03:40:22.648Z,72.30
2022-08-07T03:42:51.637Z,72.10
2022-08-07T03:45:30.046Z,72.10
2022-08-07T03:48:02.563Z,72.60
2022-08-07T03:50:32.051Z,73.10
2022-08-07T03:53:03.878Z,73.30
2022-08-07T03:55:57.477Z,74.20
2022-08-07T03:59:04.982Z,73.30
2022-08-07T04:01:11.727Z,73.80
2022-08-07T04:03:53.815Z,74.30
2022-08-07T04:06:36.106Z,74.50
2022-08-07T04:09:05.620Z,74.00
2022-08-07T04:12:26.622Z,74.30
2022-08-07T04:14:38.018Z,74.80
2022-08-07T04:18:31.916Z,75.80
2022-08-07T04:19:56.122Z,75.60
2022-08-07T04:22:29.681Z,75.80
2022-08-07T04:25:02.087Z,75.20
2022-08-07T04:27:35.677Z,75.60
2022-08-07T04:30:21.284Z,76.90
2022-08-07T04:33:09.822Z,77.00
2022-08-07T04:35:50.215Z,77.30
2022-08-07T04:38:18.696Z,77.40
2022-08-07T04:40:52.439Z,78.00
2022-08-07T04:44:10.064Z,78.30
2022-08-07T04:47:04.612Z,77.50
2022-08-07T04:50:04.418Z,79.00
2022-08-07T04:52:46.789Z,79.10
2022-08-07T04:58:11.156Z,79.70
2022-08-07T04:59:15.823Z,80.00
2022-08-07T05:01:42.085Z,80.10
2022-08-07T05:04:20.926Z,80.90
2022-08-07T05:07:09.722Z,79.40
2022-08-07T05:10:14.149Z,78.10
2022-08-07T05:12:58.592Z,77.60
2022-08-07T05:15:36.266Z,77.50
2022-08-07T05:18:08.765Z,77.30
2022-08-07T05:20:48.038Z,78.40
2022-08-07T05:23:29.128Z,77.20
2022-08-07T05:26:11.802Z,77.00
2022-08-07T05:28:48.591Z,76.40
2022-08-07T05:31:25.342Z,76.70
2022-08-07T05:34:10.732Z,76.40
2022-08-07T05:36:43.393Z,75.20
2022-08-07T05:40:16.880Z,75.50
2022-08-07T05:42:12.338Z,75.30
2022-08-07T05:44:52.892Z,74.50
2022-08-07T05:47:38.217Z,74.10
2022-08-07T05:50:18.612Z,74.30
2022-08-07T05:52:46.123Z,73.50
2022-08-07T05:55:14.220Z,73.20
2022-08-07T05:57:46.291Z,73.20
2022-08-07T06:00:16.929Z,73.20
2022-08-07T06:02:55.700Z,72.90
2022-08-07T06:05:28.689Z,72.80
2022-08-07T06:08:14.333Z,71.60
2022-08-07T06:10:51.988Z,72.20
2022-08-07T06:14:10.433Z,71.40
2022-08-07T06:16:13.502Z,71.20
2022-08-07T06:18:43.356Z,71.60
2022-08-07T06:22:15.983Z,71.90
2022-08-07T06:24:45.663Z,70.10
2022-08-07T06:26:54.472Z,70.70
2022-08-07T06:29:30.143Z,70.00
2022-08-07T06:31:57.070Z,71.20
2022-08-07T06:34:25.595Z,71.70
2022-08-07T06:36:58.436Z,70.90
2022-08-07T06:40:17.984Z,70.10
2022-08-07T06:42:34.972Z,70.20
2022-08-07T06:45:18.142Z,70.00
2022-08-07T06:47:59.025Z,70.00
2022-08-07T06:50:43.198Z,70.30
2022-08-07T06:54:11.845Z,69.70
2022-08-07T06:56:07.448Z,70.30
2022-08-07T07:00:12.662Z,69.40
2022-08-07T07:01:43.964Z,69.80
2022-08-07T07:04:28.602Z,70.60
2022-08-07T07:07:10.367Z,70.00
2022-08-07T07:09:47.718Z,69.30
2022-08-07T07:12:31.149Z,68.90
2022-08-07T07:15:24.142Z,70.20
2022-08-07T07:18:14.374Z,69.60
2022-08-07T07:20:52.080Z,68.90
2022-08-07T07:24:09.725Z,69.30
2022-08-07T07:26:35.203Z,69.30
2022-08-07T07:29:39.812Z,70.50
2022-08-07T07:31:56.616Z,71.00
2022-08-07T07:34:31.938Z,70.30
2022-08-07T07:37:05.487Z,70.70
2022-08-07T07:39:54.944Z,71.40
2022-08-07T07:42:25.911Z,70.30
2022-08-07T07:45:05.396Z,69.40
2022-08-07T07:47:42.890Z,70.30
2022-08-07T07:50:35.220Z,70.40
2022-08-07T07:53:20.356Z,70.20
2022-08-07T07:56:01.061Z,69.80
2022-08-07T07:58:36.902Z,69.70
2022-08-07T08:02:03.564Z,69.70
2022-08-07T08:04:06.222Z,69.50
2022-08-07T08:06:37.860Z,69.60
2022-08-07T08:09:08.017Z,69.80
2022-08-07T08:11:59.427Z,69.40
2022-08-07T08:14:24.667Z,69.40
2022-08-07T08:16:56.127Z,69.60
2022-08-07T08:20:18.750Z,69.60
2022-08-07T08:22:54.261Z,69.10
2022-08-07T08:25:49.167Z,69.90
2022-08-07T08:28:24.041Z,69.00
2022-08-07T08:31:07.703Z,68.20
2022-08-07T08:33:48.943Z,68.50
2022-08-07T08:36:18.563Z,69.40
2022-08-07T08:38:55.968Z,69.30
2022-08-07T08:41:57.882Z,69.00
2022-08-07T08:44:52.905Z,68.10
2022-08-07T08:47:51.986Z,67.00
2022-08-07T08:50:39.151Z,66.90
2022-08-07T08:53:06.662Z,67.10
2022-08-07T08:55:55.605Z,68.20
2022-08-07T08:58:36.909Z,67.40
2022-08-07T09:01:40.234Z,67.80
2022-08-07T09:04:30.234Z,65.90
2022-08-07T09:07:14.140Z,65.80
2022-08-07T09:09:58.875Z,65.30
2022-08-07T09:12:56.946Z,65.00
2022-08-07T09:16:25.526Z,65.90
2022-08-07T09:18:58.647Z,64.50
2022-08-07T09:21:57.691Z,64.40
2022-08-07T09:24:58.429Z,64.40
2022-08-07T09:28:00.413Z,63.30
2022-08-07T09:30:46.276Z,64.00
2022-08-07T09:33:56.955Z,62.50
2022-08-07T09:36:46.888Z,63.40
2022-08-07T09:39:54.448Z,63.40
2022-08-07T09:42:23.173Z,61.50
2022-08-07T09:47:51.687Z,62.50
2022-08-07T09:48:30.076Z,61.40
2022-08-07T09:52:16.673Z,60.30
2022-08-07T09:54:59.580Z,59.10
2022-08-07T09:57:46.892Z,59.50
2022-08-07T10:00:20.786Z,57.50
2022-08-07T10:03:08.493Z,57.60
2022-08-07T10:06:12.236Z,57.50
2022-08-07T10:09:01.077Z,58.60
2022-08-07T10:12:01.330Z,58.00
2022-08-07T10:14:42.443Z,57.60
2022-08-07T10:18:02.558Z,57.10
2022-08-07T10:20:44.464Z,55.90
2022-08-07T10:24:05.410Z,55.80
2022-08-07T10:27:10.461Z,56.00
2022-08-07T10:29:55.361Z,57.10
2022-08-07T10:32:59.937Z,55.80
2022-08-07T10:35:55.324Z,55.70
2022-08-07T10:38:36.158Z,56.70
2022-08-07T10:41:53.100Z,56.00
2022-08-07T10:44:39.389Z,54.30
2022-08-07T10:47:51.594Z,55.00
2022-08-07T10:50:50.654Z,54.50
2022-08-07T10:53:44.776Z,54.30
2022-08-07T10:56:53.062Z,54.10
2022-08-07T11:00:01.374Z,53.40
2022-08-07T11:02:49.357Z,53.70
2022-08-07T11:05:50.539Z,53.50
2022-08-07T11:10:07.149Z,53.90
2022-08-07T11:12:11.127Z,54.30
2022-08-07T11:14:57.392Z,54.20
2022-08-07T11:17:49.427Z,54.10
2022-08-07T11:20:41.863Z,54.70
2022-08-07T11:23:36.398Z,54.10
2022-08-07T11:26:26.527Z,54.40
2022-08-07T11:29:40.654Z,54.00
2022-08-07T11:32:05.362Z,53.30
2022-08-07T11:34:50.734Z,53.40
2022-08-07T11:37:38.598Z,52.40
2022-08-07T11:40:51.790Z,52.50
2022-08-07T11:43:41.363Z,52.40
2022-08-07T11:46:53.011Z,52.40
2022-08-07T11:50:11.516Z,52.70
2022-08-07T11:52:55.479Z,52.70
2022-08-07T11:56:11.958Z,53.10
2022-08-07T11:58:53.919Z,52.40
2022-08-07T12:01:59.404Z,52.90
2022-08-07T12:04:50.817Z,52.90
2022-08-07T12:07:38.919Z,52.70
2022-08-07T12:10:12.466Z,52.70
2022-08-07T12:12:55.100Z,52.10
2022-08-07T12:15:46.592Z,52.80
2022-08-07T12:18:29.749Z,53.10
2022-08-07T12:22:36.349Z,53.00
2022-08-07T12:25:07.744Z,51.40
2022-08-07T12:28:08.567Z,51.60
2022-08-07T12:30:33.022Z,50.90
2022-08-07T12:33:19.099Z,50.80
2022-08-07T12:35:57.905Z,51.20
2022-08-07T12:38:37.023Z,50.40
2022-08-07T12:41:11.319Z,50.00
2022-08-07T12:44:02.159Z,50.50
2022-08-07T12:46:52.238Z,50.40
2022-08-07T12:49:48.639Z,50.10
2022-08-07T12:52:36.178Z,50.40
2022-08-07T12:55:18.214Z,51.80
2022-08-07T12:58:00.795Z,51.30
2022-08-07T13:01:06.361Z,50.10
2022-08-07T13:04:02.765Z,50.50
2022-08-07T13:07:00.894Z,51.50
2022-08-07T13:10:19.805Z,51.10
2022-08-07T13:13:07.137Z,51.00
2022-08-07T13:15:59.008Z,51.00
2022-08-07T13:18:39.856Z,50.40
2022-08-07T13:21:50.463Z,51.00
2022-08-07T13:24:43.875Z,49.50
2022-08-07T13:27:33.321Z,50.10
2022-08-07T13:30:18.882Z,49.50
2022-08-07T13:34:32.936Z,50.10
2022-08-07T13:36:39.719Z,49.30
2022-08-07T13:39:49.096Z,49.90
2022-08-07T13:42:19.200Z,49.20
2022-08-07T13:44:55.351Z,48.90
2022-08-07T13:48:06.285Z,48.90
2022-08-07T13:50:34.067Z,47.90
2022-08-07T13:53:21.944Z,48.90
2022-08-07T13:55:54.629Z,49.30
2022-08-07T13:58:56.570Z,49.40
2022-08-07T14:01:26.641Z,49.40
2022-08-07T14:04:05.482Z,47.90
2022-08-07T14:06:35.713Z,47.90
2022-08-07T14:09:05.037Z,48.60
2022-08-07T14:12:00.092Z,47.70
2022-08-07T14:14:31.406Z,48.20
2022-08-07T14:17:32.003Z,48.40
2022-08-07T14:20:41.830Z,47.50
2022-08-07T14:22:54.470Z,47.30
2022-08-07T14:25:29.423Z,47.70
2022-08-07T14:28:13.371Z,48.00
2022-08-07T14:30:46.985Z,49.70
2022-08-07T14:33:22.442Z,48.60
2022-08-07T14:35:59.460Z,47.30
2022-08-07T14:38:33.458Z,47.70
2022-08-07T14:41:12.366Z,47.30
2022-08-07T14:43:59.118Z,46.40
2022-08-07T14:46:33.828Z,46.90
2022-08-07T14:49:17.333Z,45.80
2022-08-07T14:52:04.198Z,45.30
2022-08-07T14:54:35.910Z,45.60
2022-08-07T14:57:24.893Z,44.10
2022-08-07T15:00:05.262Z,44.40
2022-08-07T15:02:35.081Z,43.80
2022-08-07T15:05:20.292Z,42.50
2022-08-07T15:07:51.819Z,42.30
2022-08-07T15:10:26.099Z,42.40
2022-08-07T15:13:01.184Z,42.30
2022-08-07T15:15:43.934Z,40.00
2022-08-07T15:18:28.571Z,41.30
2022-08-07T15:21:08.227Z,40.40
2022-08-07T15:25:12.691Z,39.90
2022-08-07T15:26:55.385Z,41.20
2022-08-07T15:30:09.918Z,40.00
2022-08-07T15:32:39.113Z,39.60
2022-08-07T15:35:12.830Z,40.20
2022-08-07T15:38:18.193Z,39.20
2022-08-07T15:40:34.265Z,39.50
2022-08-07T15:49:14.405Z,38.40
2022-08-07T15:54:33.971Z,37.90
2022-08-07T15:57:02.707Z,37.50
2022-08-07T15:59:39.926Z,37.90
2022-08-07T16:02:24.176Z,36.90
2022-08-07T16:05:03.430Z,37.40
2022-08-07T16:08:30.943Z,37.40
2022-08-07T16:10:31.511Z,38.00
2022-08-07T16:13:18.032Z,37.50
2022-08-07T16:16:48.023Z,37.90
2022-08-07T16:19:42.975Z,37.80
2022-08-07T16:22:33.948Z,37.00
2022-08-07T16:25:52.222Z,37.00
2022-08-07T16:30:08.382Z,36.80
2022-08-07T16:31:58.820Z,36.60
2022-08-07T16:34:45.480Z,37.50
2022-08-07T16:38:04.400Z,38.30
2022-08-07T16:40:37.336Z,39.10
2022-08-07T16:44:06.489Z,40.70
2022-08-07T16:47:08.731Z,42.30
2022-08-07T16:50:28.673Z,41.40
2022-08-07T16:54:02.258Z,42.70
2022-08-07T16:56:38.933Z,43.60
2022-08-07T16:59:19.369Z,43.80
2022-08-07T17:02:05.402Z,44.20
2022-08-07T17:04:57.933Z,44.40
2022-08-07T17:07:55.329Z,44.80
2022-08-07T17:10:54.771Z,44.60
2022-08-07T17:14:19.157Z,45.30
2022-08-07T17:16:43.643Z,45.50
2022-08-07T17:20:01.548Z,45.30
2022-08-07T17:22:37.911Z,45.10
2022-08-07T17:25:51.319Z,45.80
2022-08-07T17:28:31.287Z,45.50
2022-08-07T17:31:16.233Z,45.60
2022-08-07T17:34:18.028Z,45.50
2022-08-07T17:37:08.979Z,45.40
2022-08-07T17:39:53.129Z,45.20
2022-08-07T17:42:59.224Z,45.70
2022-08-07T17:45:37.271Z,46.70
2022-08-07T17:48:14.826Z,46.60
2022-08-07T17:51:49.703Z,47.10
2022-08-07T17:54:53.082Z,46.80
2022-08-07T17:57:56.543Z,46.80
2022-08-07T18:00:33.019Z,46.90
2022-08-07T18:03:18.558Z,47.50
2022-08-07T18:06:03.137Z,47.00
2022-08-07T18:09:00.562Z,47.30
2022-08-07T18:12:11.867Z,47.50
2022-08-07T18:14:38.298Z,47.30
2022-08-07T18:18:47.318Z,47.50
2022-08-07T18:21:08.705Z,47.90
2022-08-07T18:23:59.340Z,48.10
2022-08-07T18:27:08.293Z,48.20
2022-08-07T18:30:04.627Z,48.60
2022-08-07T18:33:15.066Z,48.70
2022-08-07T18:35:57.490Z,48.80
2022-08-07T18:38:57.601Z,49.10
2022-08-07T18:41:57.417Z,48.80
2022-08-07T18:45:42.894Z,49.20
2022-08-07T18:47:48.142Z,49.50
2022-08-07T18:50:47.451Z,49.50
2022-08-07T18:53:44.471Z,49.50
2022-08-07T18:57:23.405Z,50.00
2022-08-07T19:00:34.128Z,50.00
2022-08-07T19:03:15.960Z,49.90
2022-08-07T19:06:04.767Z,50.40
2022-08-07T19:08:50.884Z,50.30
2022-08-07T19:11:36.173Z,50.70
2022-08-07T19:14:20.355Z,50.60
2022-08-07T19:17:05.891Z,50.80
2022-08-07T19:20:02.088Z,50.70
2022-08-07T19:22:34.033Z,51.50
2022-08-07T19:25:06.652Z,51.10
2022-08-07T19:28:57.820Z,51.20
2022-08-07T19:31:02.069Z,51.50
2022-08-07T19:33:15.613Z,51.50
2022-08-07T19:35:56.619Z,51.40
2022-08-07T19:38:29.136Z,51.50
2022-08-07T19:40:59.615Z,51.80
2022-08-07T19:43:49.218Z,51.60
2022-08-07T19:46:26.333Z,51.30
2022-08-07T19:49:05.113Z,51.80
2022-08-07T19:51:52.611Z,51.60
2022-08-07T19:54:32.589Z,51.70
2022-08-07T19:58:02.865Z,52.00
2022-08-07T20:00:02.176Z,51.70
2022-08-07T20:02:51.899Z,52.00
2022-08-07T20:05:28.005Z,52.10
2022-08-07T20:08:01.329Z,52.10
2022-08-07T20:10:54.780Z,52.50
2022-08-07T20:13:45.418Z,52.70
2022-08-07T20:16:35.789Z,52.60
2022-08-07T20:19:10.042Z,52.70
2022-08-07T20:21:47.312Z,52.90
2022-08-07T20:24:19.208Z,52.40
2022-08-07T20:26:52.393Z,52.60
2022-08-07T20:29:48.211Z,52.70
2022-08-07T20:32:25.205Z,52.20
2022-08-07T20:34:56.105Z,52.70
2022-08-07T20:37:58.935Z,52.80
2022-08-07T20:40:32.164Z,54.10
2022-08-07T20:43:02.762Z,54.90
2022-08-07T20:46:28.387Z,55.30
2022-08-07T20:48:29.949Z,55.30
2022-08-07T20:51:09.725Z,55.40
2022-08-07T20:54:04.368Z,55.70
2022-08-07T20:56:28.991Z,55.20
2022-08-07T20:59:00.168Z,55.50
2022-08-07T21:01:45.377Z,54.50
2022-08-07T21:04:22.570Z,54.90
2022-08-07T21:06:55.375Z,54.70
2022-08-07T21:09:30.752Z,54.80
2022-08-07T21:12:28.961Z,55.20
2022-08-07T21:15:02.909Z,55.40
2022-08-07T21:18:03.308Z,56.00
2022-08-07T21:20:26.773Z,56.30
2022-08-07T21:22:59.259Z,56.40
2022-08-07T21:25:42.492Z,56.20
2022-08-07T21:28:47.554Z,56.30
2022-08-07T21:31:20.881Z,57.70
2022-08-07T21:34:12.648Z,60.70
2022-08-07T21:36:51.131Z,62.80
2022-08-07T21:39:46.415Z,62.50
2022-08-07T21:42:46.506Z,63.60
2022-08-07T21:46:07.725Z,63.70
2022-08-07T21:48:42.533Z,64.10
2022-08-07T21:51:27.010Z,64.50
2022-08-07T21:54:04.416Z,65.30
2022-08-07T21:56:48.143Z,65.50
2022-08-07T22:00:04.330Z,65.80
2022-08-07T22:02:59.258Z,66.40
2022-08-07T22:05:46.218Z,66.90
2022-08-07T22:08:19.847Z,66.80
2022-08-07T22:10:55.233Z,67.00
2022-08-07T22:13:50.991Z,67.70
2022-08-07T22:16:40.142Z,67.60
2022-08-07T22:19:18.115Z,68.80
2022-08-07T22:22:17.737Z,69.30
2022-08-07T22:24:56.821Z,69.90
2022-08-07T22:28:07.204Z,70.80
2022-08-07T22:30:27.190Z,70.80
2022-08-07T22:33:15.082Z,71.50
2022-08-07T22:35:51.093Z,70.80
2022-08-07T22:38:47.944Z,71.20
2022-08-07T22:41:29.213Z,72.10
2022-08-07T22:44:18.452Z,72.90
2022-08-07T22:47:08.804Z,72.60
2022-08-07T22:49:54.846Z,72.00
2022-08-07T22:52:47.126Z,72.90
2022-08-07T22:55:47.448Z,73.20
2022-08-07T22:58:37.588Z,73.30
2022-08-07T23:01:06.203Z,74.00
2022-08-07T23:04:01.702Z,74.40
2022-08-07T23:07:31.925Z,75.80
2022-08-07T23:10:38.039Z,75.80
2022-08-07T23:13:19.428Z,75.90
2022-08-07T23:16:05.460Z,75.70
2022-08-07T23:19:47.816Z,75.90
2022-08-07T23:22:34.230Z,76.10
2022-08-07T23:25:28.530Z,76.50
2022-08-07T23:28:21.917Z,75.20
2022-08-07T23:31:43.018Z,76.30
2022-08-07T23:34:34.908Z,75.80
2022-08-07T23:37:19.313Z,75.50
2022-08-07T23:40:19.008Z,74.60
2022-08-07T23:43:16.885Z,74.90
2022-08-07T23:46:02.851Z,73.60
2022-08-07T23:49:06.004Z,71.50
2022-08-07T23:53:05.446Z,72.00
2022-08-07T23:54:59.663Z,69.50
2022-08-07T23:57:39.757Z,70.60
